createdAt,value
2023-02-22T00:04:10.691Z,35.0
2023-02-22T00:09:16.881Z,36.0
2023-02-22T00:14:23.087Z,35.5
2023-02-22T00:19:29.294Z,37.0
2023-02-22T00:24:35.499Z,37.5
2023-02-22T00:29:41.710Z,37.0
2023-02-22T00:34:47.912Z,38.0
2023-02-22T00:39:54.124Z,37.0
2023-02-22T00:45:00.345Z,36.0
2023-02-22T00:50:06.545Z,32.5
2023-02-22T00:55:12.748Z,33.0
2023-02-22T01:00:18.959Z,35.0
2023-02-22T01:05:25.164Z,37.5
2023-02-22T01:10:31.374Z,35.0
2023-02-22T01:15:37.599Z,35.0
2023-02-22T01:20:43.784Z,38.0
2023-02-22T01:25:49.998Z,38.0
2023-02-22T01:30:56.669Z,38.0
2023-02-22T01:36:01.435Z,38.0
2023-02-22T01:41:07.664Z,38.0
2023-02-22T01:46:13.876Z,37.0
2023-02-22T01:51:19.264Z,40.0
2023-02-22T01:56:25.314Z,40.0
2023-02-22T02:01:30.520Z,38.0
2023-02-22T02:06:36.731Z,38.0
2023-02-22T02:11:42.955Z,41.0
2023-02-22T02:16:49.542Z,40.0
2023-02-22T02:21:55.370Z,43.0
2023-02-22T02:27:01.570Z,41.0
2023-02-22T02:32:07.961Z,44.0
2023-02-22T02:37:13.981Z,45.0
2023-02-22T02:42:20.190Z,45.0
2023-02-22T02:47:26.550Z,45.0
2023-02-22T02:52:32.885Z,42.0
2023-02-22T02:57:38.819Z,45.0
2023-02-22T03:02:45.024Z,46.0
2023-02-22T03:07:51.232Z,50.0
2023-02-22T03:12:57.439Z,48.0
2023-02-22T03:18:03.767Z,48.0
2023-02-22T03:23:09.851Z,52.0
2023-02-22T03:28:16.076Z,50.5
2023-02-22T03:33:22.281Z,57.0
2023-02-22T03:38:28.479Z,57.0
2023-02-22T03:43:34.697Z,58.0
2023-02-22T03:48:39.944Z,83.0
2023-02-22T03:53:46.132Z,70.5
2023-02-22T03:58:51.363Z,67.0
2023-02-22T04:03:57.656Z,76.5
2023-02-22T04:09:03.791Z,57.5
2023-02-22T04:14:09.994Z,61.5
2023-02-22T04:19:16.200Z,72.0
2023-02-22T04:24:22.428Z,80.0
2023-02-22T04:29:28.614Z,84.5
2023-02-22T04:34:34.822Z,54.5
2023-02-22T04:39:41.082Z,64.0
2023-02-22T04:44:47.243Z,60.0
2023-02-22T04:49:53.441Z,47.0
2023-02-22T04:54:59.652Z,49.5
2023-02-22T05:00:05.877Z,61.0
2023-02-22T05:05:12.066Z,53.0
2023-02-22T05:10:18.309Z,69.0
2023-02-22T05:15:24.544Z,76.5
2023-02-22T05:20:30.686Z,70.5
2023-02-22T05:25:36.895Z,56.0
2023-02-22T05:30:43.138Z,74.5
2023-02-22T05:35:49.315Z,53.0
2023-02-22T05:40:55.524Z,54.0
2023-02-22T05:46:00.763Z,57.0
2023-02-22T05:51:07.065Z,58.0
2023-02-22T05:56:12.208Z,56.0
2023-02-22T06:01:18.686Z,58.5
2023-02-22T06:06:24.615Z,60.0
2023-02-22T06:11:30.816Z,53.0
2023-02-22T06:16:37.060Z,47.0
2023-02-22T06:21:43.454Z,49.0
2023-02-22T06:26:49.440Z,53.0
2023-02-22T06:31:55.810Z,52.0
2023-02-22T06:37:01.856Z,53.0
2023-02-22T06:42:08.107Z,53.0
2023-02-22T06:47:14.271Z,56.0
2023-02-22T06:52:20.484Z,55.0
2023-02-22T06:57:26.682Z,59.0
2023-02-22T07:02:32.897Z,57.0
2023-02-22T07:07:39.103Z,59.0
2023-02-22T07:12:45.327Z,68.0
2023-02-22T07:17:50.558Z,54.0
2023-02-22T07:22:56.749Z,60.0
2023-02-22T07:28:02.962Z,55.0
2023-02-22T07:33:09.279Z,61.5
2023-02-22T07:38:15.378Z,53.0
2023-02-22T07:43:20.655Z,57.0
2023-02-22T07:48:26.832Z,55.0
2023-02-22T07:53:33.029Z,54.0
2023-02-22T07:58:38.371Z,53.0
2023-02-22T08:03:44.891Z,56.5
2023-02-22T08:08:50.685Z,55.0
2023-02-22T08:13:56.888Z,48.5
2023-02-22T08:19:03.094Z,48.5
2023-02-22T08:24:09.304Z,49.0
2023-02-22T08:29:15.516Z,51.0
2023-02-22T08:34:21.736Z,49.0
2023-02-22T08:39:27.922Z,48.0
2023-02-22T08:44:34.133Z,48.5
2023-02-22T08:49:40.364Z,49.0
2023-02-22T08:54:46.540Z,49.5
2023-02-22T08:59:53.077Z,52.0
2023-02-22T09:04:58.987Z,47.0
2023-02-22T09:10:05.167Z,48.0
2023-02-22T09:15:11.373Z,46.5
2023-02-22T09:20:17.640Z,49.0
2023-02-22T09:25:23.792Z,48.0
2023-02-22T09:30:30.009Z,44.0
2023-02-22T09:35:36.610Z,43.0
2023-02-22T09:40:42.407Z,43.0
2023-02-22T09:45:47.662Z,40.0
2023-02-22T09:50:53.853Z,36.5
2023-02-22T09:55:59.091Z,38.5
2023-02-22T10:01:05.299Z,37.0
2023-02-22T10:06:11.519Z,34.0
2023-02-22T10:11:17.709Z,33.0
2023-02-22T10:16:23.949Z,35.0
2023-02-22T10:21:30.128Z,34.0
2023-02-22T10:26:36.343Z,35.0
2023-02-22T10:31:42.590Z,33.0
2023-02-22T10:36:48.764Z,32.0
2023-02-22T10:41:54.966Z,30.0
2023-02-22T10:47:01.184Z,28.0
2023-02-22T10:52:07.389Z,28.0
2023-02-22T10:57:13.925Z,26.0
2023-02-22T11:02:19.799Z,25.0
2023-02-22T11:07:26.002Z,25.0
2023-02-22T11:12:32.229Z,24.0
2023-02-22T11:17:38.422Z,24.0
2023-02-22T11:22:44.634Z,23.0
2023-02-22T11:27:50.990Z,20.0
2023-02-22T11:32:57.052Z,19.0
2023-02-22T11:38:03.395Z,20.0
2023-02-22T11:43:08.803Z,15.0
2023-02-22T11:48:14.771Z,14.0
2023-02-22T11:53:20.906Z,14.0
2023-02-22T11:58:27.227Z,14.0
2023-02-22T12:03:33.394Z,14.0
2023-02-22T12:08:39.544Z,16.0
2023-02-22T12:13:45.753Z,15.0
2023-02-22T12:18:51.961Z,15.0
2023-02-22T12:23:58.186Z,15.0
2023-02-22T12:29:04.417Z,16.0
2023-02-22T12:34:10.721Z,16.0
2023-02-22T12:39:16.847Z,16.0
2023-02-22T12:44:23.056Z,15.0
2023-02-22T12:49:29.275Z,16.0
2023-02-22T12:54:35.489Z,15.0
2023-02-22T12:59:41.698Z,15.0
2023-02-22T13:04:47.896Z,15.0
2023-02-22T13:09:54.105Z,16.0
2023-02-22T13:15:00.321Z,16.0
2023-02-22T13:20:06.522Z,16.0
2023-02-22T13:25:12.751Z,16.0
2023-02-22T13:30:18.977Z,16.0
2023-02-22T13:35:24.198Z,17.0
2023-02-22T13:40:30.379Z,17.0
2023-02-22T13:45:35.614Z,17.0
2023-02-22T13:50:41.825Z,17.0
2023-02-22T13:55:47.313Z,17.0
2023-02-22T14:00:53.274Z,17.0
2023-02-22T14:05:59.481Z,17.0
2023-02-22T14:11:05.711Z,18.0
2023-02-22T14:16:11.958Z,19.0
2023-02-22T14:21:18.133Z,17.0
2023-02-22T14:26:24.352Z,17.0
2023-02-22T14:31:36.441Z,16.0
2023-02-22T14:36:36.783Z,16.0
2023-02-22T14:41:43.036Z,16.0
2023-02-22T14:46:49.554Z,17.0
2023-02-22T14:51:55.426Z,17.0
2023-02-22T14:57:01.650Z,17.0
2023-02-22T15:02:11.660Z,17.0
2023-02-22T15:07:14.183Z,18.0
2023-02-22T15:12:20.319Z,18.0
2023-02-22T15:17:26.489Z,18.0
2023-02-22T15:22:32.690Z,18.0
2023-02-22T15:27:38.939Z,19.0
2023-02-22T15:33:02.589Z,20.0
2023-02-22T15:37:51.321Z,24.0
2023-02-22T15:42:56.562Z,27.0
2023-02-22T15:48:03.082Z,21.0
2023-02-22T15:53:08.010Z,21.0
2023-02-22T15:58:14.231Z,21.0
2023-02-22T16:03:20.432Z,20.0
2023-02-22T16:08:26.633Z,21.0
2023-02-22T16:13:33.197Z,22.0
2023-02-22T16:18:39.052Z,21.0
2023-02-22T16:23:45.262Z,22.0
2023-02-22T16:28:51.466Z,22.0
2023-02-22T16:33:57.678Z,22.0
2023-02-22T16:39:03.884Z,22.0
2023-02-22T16:44:10.142Z,22.0
2023-02-22T16:49:16.313Z,22.0
2023-02-22T16:54:22.505Z,23.0
2023-02-22T16:59:28.712Z,23.0
2023-02-22T17:04:34.936Z,23.0
2023-02-22T17:09:41.122Z,23.5
2023-02-22T17:14:47.326Z,23.0
2023-02-22T17:19:53.540Z,23.0
2023-02-22T17:24:59.757Z,24.0
2023-02-22T17:30:05.953Z,24.0
2023-02-22T17:35:12.163Z,24.0
2023-02-22T17:40:17.433Z,24.0
2023-02-22T17:45:23.614Z,25.0
2023-02-22T17:50:28.854Z,25.0
2023-02-22T17:55:35.065Z,25.0
2023-02-22T18:00:41.279Z,26.0
2023-02-22T18:05:47.475Z,26.0
2023-02-22T18:10:53.675Z,27.0
2023-02-22T18:16:00.419Z,26.0
2023-02-22T18:21:06.095Z,26.0
2023-02-22T18:26:12.323Z,25.0
2023-02-22T18:31:18.563Z,26.0
2023-02-22T18:36:24.866Z,26.5
2023-02-22T18:41:30.925Z,26.0
2023-02-22T18:46:37.200Z,26.0
2023-02-22T18:51:43.342Z,27.0
2023-02-22T18:56:49.549Z,27.0
2023-02-22T19:01:55.795Z,32.0
2023-02-22T19:07:01.967Z,32.0
2023-02-22T19:12:08.179Z,36.0
2023-02-22T19:17:14.388Z,42.0
2023-02-22T19:22:20.598Z,44.0
2023-02-22T19:27:26.801Z,46.0
2023-02-22T19:32:33.059Z,49.0
2023-02-22T19:37:38.238Z,50.0
2023-02-22T19:42:44.456Z,50.5
2023-02-22T19:47:49.691Z,51.0
2023-02-22T19:52:55.892Z,52.0
2023-02-22T19:58:02.115Z,57.5
2023-02-22T20:03:08.349Z,60.0
2023-02-22T20:08:14.511Z,63.0
2023-02-22T20:13:20.727Z,73.0
2023-02-22T20:18:27.262Z,74.0
2023-02-22T20:23:33.138Z,76.0
2023-02-22T20:28:39.349Z,71.5
2023-02-22T20:33:45.773Z,74.5
2023-02-22T20:38:51.770Z,68.5
2023-02-22T20:43:57.980Z,66.0
2023-02-22T20:49:04.186Z,66.0
2023-02-22T20:54:10.393Z,63.0
2023-02-22T20:59:16.598Z,64.0
2023-02-22T21:04:23.091Z,63.0
2023-02-22T21:09:29.017Z,62.0
2023-02-22T21:14:35.229Z,63.5
2023-02-22T21:19:41.435Z,60.0
2023-02-22T21:24:47.645Z,61.0
2023-02-22T21:29:53.845Z,60.0
2023-02-22T21:34:59.087Z,60.0
2023-02-22T21:40:05.294Z,57.5
2023-02-22T21:45:10.529Z,60.0
2023-02-22T21:50:16.752Z,60.0
2023-02-22T21:55:22.945Z,60.0
2023-02-22T22:00:29.345Z,59.0
2023-02-22T22:05:35.371Z,56.0
2023-02-22T22:10:41.570Z,56.5
2023-02-22T22:15:47.826Z,59.0
2023-02-22T22:20:53.978Z,58.0
2023-02-22T22:26:00.184Z,58.0
2023-02-22T22:31:06.509Z,57.0
2023-02-22T22:36:12.720Z,56.0
2023-02-22T22:41:19.390Z,55.0
2023-02-22T22:46:25.078Z,58.0
2023-02-22T22:51:33.364Z,57.5
2023-02-22T22:56:37.438Z,56.0
2023-02-22T23:01:43.648Z,55.0
2023-02-22T23:06:49.884Z,57.5
2023-02-22T23:11:56.067Z,55.0
2023-02-22T23:17:02.275Z,54.0
2023-02-22T23:22:08.473Z,57.0
2023-02-22T23:27:14.676Z,56.0
2023-02-22T23:32:20.151Z,54.0
2023-02-22T23:37:26.130Z,56.0
2023-02-22T23:42:31.719Z,56.0
2023-02-22T23:47:37.573Z,54.0
2023-02-22T23:52:43.784Z,58.0
2023-02-22T23:57:50.000Z,53.0
